Date,TemperatureHighF,TemperatureAvgF,TemperatureLowF,DewpointHighF,DewpointAvgF,DewpointLowF,HumidityHigh,HumidityAvg,HumidityLow,PressureMaxIn,PressureMinIn,WindSpeedMaxMPH,WindSpeedAvgMPH,GustSpeedMaxMPH,PrecipitationSumIn
2013-12-1,31,28,25,29,25,21,94,86,79,30.14,30.04,4,1,9,0.00
2013-12-2,31,22,15,23,19,14,94,87,63,30.04,29.94,3,0,6,0.00
2013-12-3,26,21,15,24,19,13,94,91,89,30.04,29.99,10,2,15,0.00
2013-12-4,40,28,23,39,26,22,94,93,92,30.02,29.48,18,7,25,0.36
2013-12-5,44,32,17,43,27,9,94,82,69,30.02,29.40,21,9,32,0.08
2013-12-6,23,17,11,14,10,6,82,74,62,30.32,30.02,14,5,19,0.00
2013-12-7,20,14,8,10,6,-1,84,72,57,30.52,30.32,10,4,16,0.00
2013-12-8,23,13,2,21,8,-4,93,80,63,30.55,30.11,5,1,11,0.00
2013-12-9,28,21,6,26,19,2,94,91,81,30.10,29.70,11,3,20,0.00
2013-12-10,13,7,1,9,4,-2,90,85,78,29.99,29.78,10,3,19,0.00
2013-12-11,13,8,3,6,2,-2,83,77,64,30.31,30.00,14,5,16,0.00
2013-12-12,16,10,4,8,4,-2,87,76,64,30.29,29.99,13,5,20,0.00
2013-12-13,12,0,-13,8,-7,-17,87,73,51,30.49,29.99,12,2,18,0.00
2013-12-14,10,4,-8,7,1,-12,89,86,80,30.50,29.99,12,3,16,0.00
2013-12-15,11,7,-3,8,4,-6,90,88,85,30.02,29.74,7,1,11,0.00
2013-12-16,17,0,-20,15,-4,-23,92,82,67,30.21,30.00,8,1,15,0.00
2013-12-17,20,18,17,18,16,15,93,91,87,30.00,29.81,13,2,17,0.00
2013-12-18,26,20,16,22,16,13,94,85,68,29.99,29.76,10,3,15,0.00
2013-12-19,28,22,16,25,19,13,94,87,74,30.09,29.72,9,2,14,0.00
2013-12-20,17,15,12,15,12,9,92,89,82,30.07,29.91,6,2,8,0.00
2013-12-21,22,18,16,18,15,14,92,87,80,30.07,29.87,7,1,14,0.00
2013-12-22,19,13,5,14,10,3,91,87,76,30.11,29.89,11,4,20,0.00
2013-12-23,6,0,-13,3,-3,-16,90,86,79,30.41,30.12,5,1,9,0.00
2013-12-24,7,-8,-17,-2,-12,-21,87,82,66,30.55,30.41,3,0,4,0.00
2013-12-25,21,14,-13,19,12,-16,94,90,84,30.50,30.04,15,4,26,0.00
2013-12-26,25,14,4,17,10,2,94,85,68,30.21,30.00,11,2,16,0.00
2013-12-27,33,18,-1,30,14,-3,93,87,74,30.24,29.85,10,2,15,0.00
2013-12-28,34,32,30,32,30,28,94,92,89,29.98,29.77,14,2,14,0.00
2013-12-29,28,8,-7,26,6,-10,94,88,82,30.07,29.74,11,3,16,0.00
2013-12-30,12,2,-19,5,-16,-100,90,69,69,30.27,30.08,9,-130,10,0.00
2013-12-31,12,6,0,4,1,-5,90,78,57,30.28,29.98,12,4,22,0.00